Time;durP1;ratioP1;P1;durP2;ratioP2;P2;SDS_P1;SDS_P2;PMS_P1;PMS_P2;Temp;Humidity;BMP_temperature;BMP_pressure;BME280_temperature;BME280_humidity;BME280_pressure;Samples;Min_cycle;Max_cycle;Signal;HPM_P1;HPM_P2
2024/01/26 00:08:52;;;;;;;123.32;88.18;;;;;;;23.10;51.48;101280.66;31268701;28;20221;-60
2024/01/26 00:23:55;;;;;;;105.55;75.05;;;;;;;23.08;51.29;101279.31;31272719;28;20307;-58
2024/01/26 00:38:59;;;;;;;93.90;66.68;;;;;;;23.06;51.43;101276.00;31268984;28;20383;-60
2024/01/26 00:54:02;;;;;;;77.85;56.30;;;;;;;23.04;51.10;101247.09;31260812;28;20224;-62
2024/01/26 01:09:05;;;;;;;73.35;52.65;;;;;;;23.03;52.75;101236.91;31248285;28;20223;-59
2024/01/26 01:24:08;;;;;;;64.32;47.03;;;;;;;23.01;53.04;101222.22;31255748;28;20233;-59
2024/01/26 01:39:11;;;;;;;58.03;41.65;;;;;;;22.97;52.91;101222.13;31255214;28;20756;-58
2024/01/26 01:54:15;;;;;;;49.78;36.45;;;;;;;22.97;52.44;101221.28;31257456;28;20820;-58
2024/01/26 02:09:18;;;;;;;46.63;34.30;;;;;;;22.96;52.85;101219.63;31260165;28;20315;-59
2024/01/26 02:24:21;;;;;;;42.38;30.30;;;;;;;22.93;52.76;101191.91;31253660;28;20346;-58
2024/01/26 02:39:24;;;;;;;37.58;27.48;;;;;;;22.93;52.55;101197.59;31252706;28;20291;-61
2024/01/26 02:54:27;;;;;;;33.63;24.05;;;;;;;22.91;52.96;101177.22;31246576;28;20228;-58
2024/01/26 03:09:30;;;;;;;30.25;22.25;;;;;;;22.90;53.01;101158.53;31252640;28;20223;-59
2024/01/26 03:24:33;;;;;;;26.70;19.90;;;;;;;22.88;53.68;101166.56;31250372;28;20329;-56
2024/01/26 03:39:36;;;;;;;23.25;17.83;;;;;;;22.83;53.73;101146.91;31188903;28;20193;-61
2024/01/26 03:54:40;;;;;;;18.45;14.82;;;;;;;23.06;53.82;101134.88;31244489;28;20307;-65
2024/01/26 04:09:43;;;;;;;19.92;15.57;;;;;;;23.32;53.66;101137.47;31260289;28;20212;-61
2024/01/26 04:24:46;;;;;;;16.88;12.32;;;;;;;23.43;53.20;101092.41;31266629;28;20226;-60
2024/01/26 04:39:50;;;;;;;15.82;11.57;;;;;;;23.42;52.45;101050.97;31245802;28;20199;-57
2024/01/26 04:54:53;;;;;;;26.90;20.52;;;;;;;23.44;50.04;101018.19;31304937;28;20228;-62
2024/01/26 05:09:56;;;;;;;102.22;71.68;;;;;;;23.56;50.58;100993.84;31274790;28;20519;-61
2024/01/26 05:25:00;;;;;;;90.80;63.60;;;;;;;23.47;50.86;100986.25;31258511;28;20236;-60
2024/01/26 05:40:07;;;;;;;81.35;59.72;;;;;;;23.30;51.62;100992.13;31338037;28;20291;-57
2024/01/26 05:55:10;;;;;;;118.05;78.90;;;;;;;23.15;54.67;100989.97;31321956;28;20227;-59
2024/01/26 06:10:13;;;;;;;112.75;76.85;;;;;;;23.05;54.06;100960.00;31300824;28;20220;-60
2024/01/26 06:25:16;;;;;;;111.93;76.68;;;;;;;22.89;53.97;100907.94;31259210;28;20248;-55
2024/01/26 06:40:19;;;;;;;102.38;71.43;;;;;;;22.79;54.09;100891.34;31295833;28;20224;-59
2024/01/26 06:55:22;;;;;;;95.25;65.47;;;;;;;22.69;54.27;100874.75;31261567;28;20228;-56
2024/01/26 07:10:26;;;;;;;86.82;58.67;;;;;;;22.57;53.86;100863.38;31231811;28;20231;-59
2024/01/26 07:25:30;;;;;;;83.60;57.00;;;;;;;22.49;54.36;100825.38;31211454;28;20228;-60
2024/01/26 07:40:33;;;;;;;78.38;54.17;;;;;;;22.38;54.24;100812.84;31243273;28;20193;-58
2024/01/26 07:55:37;;;;;;;70.20;48.60;;;;;;;22.26;54.45;100813.63;31227478;28;20520;-60
2024/01/26 08:10:40;;;;;;;62.40;45.17;;;;;;;22.18;54.41;100834.41;31226007;28;20286;-57
2024/01/26 08:25:43;;;;;;;58.00;42.22;;;;;;;22.09;54.61;100816.63;31235389;28;20230;-61
2024/01/26 08:40:46;;;;;;;50.85;36.72;;;;;;;22.00;54.87;100819.56;31242650;28;20647;-58
2024/01/26 08:55:49;;;;;;;42.75;29.25;;;;;;;21.96;55.03;100787.38;31262434;28;20236;-58
2024/01/26 09:10:52;;;;;;;36.80;25.50;;;;;;;21.89;55.29;100843.78;31260811;28;20227;-58
2024/01/26 09:25:55;;;;;;;28.05;20.25;;;;;;;21.83;55.31;100836.66;31252591;28;20228;-59
2024/01/26 09:40:58;;;;;;;25.15;18.20;;;;;;;21.78;55.61;100822.72;31254308;28;20310;-61
2024/01/26 09:56:01;;;;;;;20.10;15.45;;;;;;;21.74;55.34;100818.91;31252636;28;20224;-60
2024/01/26 10:11:04;;;;;;;20.42;14.88;;;;;;;21.72;55.54;100801.44;31267386;28;20306;-60
2024/01/26 10:26:10;;;;;;;18.50;11.90;;;;;;;21.67;55.49;100798.81;31266454;28;20613;-60
2024/01/26 10:41:18;;;;;;;14.63;10.88;;;;;;;21.65;55.61;100787.00;31264185;28;20495;-61
2024/01/26 10:56:22;;;;;;;12.88;9.30;;;;;;;21.62;55.62;100807.50;31248754;28;20224;-60
2024/01/26 11:11:25;;;;;;;11.07;8.18;;;;;;;21.60;55.43;100870.16;31239384;28;20378;-59
2024/01/26 11:26:28;;;;;;;10.20;7.32;;;;;;;21.56;55.49;100925.81;31269553;28;20234;-59
2024/01/26 11:41:31;;;;;;;8.85;6.78;;;;;;;21.54;55.73;100993.34;31267273;28;20222;-58
2024/01/26 11:56:35;;;;;;;7.15;5.45;;;;;;;21.51;55.17;101055.47;31269821;28;20358;-60
2024/01/26 12:11:38;;;;;;;7.40;5.15;;;;;;;21.56;54.81;101092.09;31274649;28;20620;-60
2024/01/26 12:26:41;;;;;;;5.90;4.45;;;;;;;21.65;54.58;101146.75;31263388;28;20231;-59
2024/01/26 12:41:44;;;;;;;5.72;4.43;;;;;;;21.70;53.81;101178.56;31261182;28;20292;-58
2024/01/26 12:56:48;;;;;;;4.93;3.90;;;;;;;21.64;53.85;101232.91;31254062;28;20640;-59
2024/01/26 13:11:51;;;;;;;5.30;3.63;;;;;;;21.66;53.75;101258.91;31276169;28;20239;-58
2024/01/26 13:26:54;;;;;;;3.75;2.75;;;;;;;21.64;53.18;101284.72;31314287;28;20232;-62
2024/01/26 13:41:57;;;;;;;3.60;2.50;;;;;;;21.55;53.31;101334.84;31283093;28;20550;-59
2024/01/26 13:57:01;;;;;;;3.70;2.40;;;;;;;21.49;53.28;101369.34;31328323;28;20223;-59
2024/01/26 14:12:05;;;;;;;3.25;2.50;;;;;;;21.43;53.60;101410.31;31267238;28;20258;-60
2024/01/26 14:27:09;;;;;;;6.15;2.40;;;;;;;21.59;53.21;101448.34;31262313;28;20259;-59
2024/01/26 14:42:12;;;;;;;3.55;2.08;;;;;;;21.78;52.69;101480.06;31262695;28;20195;-59
2024/01/26 14:57:17;;;;;;;2.42;1.83;;;;;;;21.90;52.06;101508.59;31288183;28;20227;-59
2024/01/26 15:12:20;;;;;;;2.13;1.50;;;;;;;22.00;51.51;101545.16;31242617;28;20628;-60
2024/01/26 15:27:24;;;;;;;3.45;1.48;;;;;;;22.15;51.29;101591.22;31254129;28;20221;-58
2024/01/26 15:42:27;;;;;;;7.28;4.07;;;;;;;22.34;50.95;101632.31;31261727;28;20283;-61
2024/01/26 15:57:30;;;;;;;62.70;40.63;;;;;;;22.62;51.07;101647.06;31217871;28;20234;-58
2024/01/26 16:12:33;;;;;;;39.67;26.70;;;;;;;22.75;50.36;101674.44;31256509;28;20303;-59
2024/01/26 16:27:37;;;;;;;66.30;39.92;;;;;;;22.32;47.04;101724.59;31238152;28;20228;-62
2024/01/26 16:42:40;;;;;;;66.40;40.15;;;;;;;22.34;48.95;101742.09;31224526;28;20606;-67
2024/01/26 16:57:43;;;;;;;112.72;77.10;;;;;;;22.59;49.27;101803.78;31240312;28;20224;-60
2024/01/26 17:12:47;;;;;;;137.32;88.05;;;;;;;22.65;49.59;101833.69;31236247;28;20220;-62
2024/01/26 17:27:50;;;;;;;133.88;86.47;;;;;;;22.77;49.15;101856.63;31236996;28;20236;-64
2024/01/26 17:42:53;;;;;;;113.70;74.85;;;;;;;22.85;49.34;101877.69;31246053;28;20207;-65
2024/01/26 17:57:56;;;;;;;123.07;82.22;;;;;;;22.76;49.16;101894.69;31227578;28;20255;-64
2024/01/26 18:12:59;;;;;;;177.07;104.32;;;;;;;22.95;48.34;101900.16;31236929;28;20259;-57
2024/01/26 18:28:03;;;;;;;136.32;87.28;;;;;;;23.20;47.84;101926.97;31238407;28;20319;-68
2024/01/26 18:43:06;;;;;;;164.40;105.97;;;;;;;23.41;47.19;101964.97;31228349;28;20287;-60
2024/01/26 18:58:09;;;;;;;167.17;117.50;;;;;;;23.74;44.53;101987.34;31216481;28;20448;-62
2024/01/26 19:13:12;;;;;;;141.60;107.20;;;;;;;23.74;46.39;102024.28;31226815;28;20809;-62
2024/01/26 19:28:15;;;;;;;143.23;95.80;;;;;;;23.45;46.92;102048.38;31248374;28;20240;-64
2024/01/26 19:43:19;;;;;;;183.40;123.97;;;;;;;23.43;45.95;102093.34;31232416;28;20287;-64
2024/01/26 19:58:23;;;;;;;206.55;142.38;;;;;;;23.48;46.66;102095.22;31241003;28;20201;-62
2024/01/26 20:13:26;;;;;;;158.70;107.65;;;;;;;23.62;47.16;102109.34;31233438;28;20528;-63
2024/01/26 20:28:30;;;;;;;117.78;80.60;;;;;;;23.60;47.12;102131.59;31250903;28;20267;-61
2024/01/26 20:43:33;;;;;;;94.40;62.80;;;;;;;23.55;47.90;102140.22;31256364;28;20232;-63
2024/01/26 20:58:36;;;;;;;93.85;62.75;;;;;;;23.52;47.20;102153.94;31252671;28;20594;-62
2024/01/26 21:13:39;;;;;;;126.80;86.88;;;;;;;23.43;46.24;102166.38;31248783;28;20230;-63
2024/01/26 21:28:42;;;;;;;92.65;60.63;;;;;;;23.24;45.56;102165.75;31243225;28;20319;-61
2024/01/26 21:43:48;;;;;;;65.05;42.50;;;;;;;23.06;44.52;102167.63;31258756;28;20541;-61
2024/01/26 21:58:51;;;;;;;46.58;30.20;;;;;;;22.88;44.72;102172.31;31256665;28;20227;-63
2024/01/26 22:13:56;;;;;;;31.75;21.33;;;;;;;22.73;44.56;102173.47;31251126;28;20639;-63
2024/01/26 22:29:00;;;;;;;24.65;15.45;;;;;;;22.61;44.18;102169.50;31276624;28;20220;-63
2024/01/26 22:44:03;;;;;;;18.20;11.95;;;;;;;22.52;43.96;102180.78;31273686;28;20266;-62
2024/01/26 22:59:06;;;;;;;14.40;9.52;;;;;;;22.40;43.72;102192.69;31251842;28;20284;-64
2024/01/26 23:14:09;;;;;;;11.77;7.90;;;;;;;22.30;43.72;102211.91;31331673;28;20342;-63
2024/01/26 23:29:12;;;;;;;10.70;5.93;;;;;;;22.21;43.73;102227.97;31256493;28;20525;-63
2024/01/26 23:44:15;;;;;;;10.60;5.97;;;;;;;22.13;43.98;102240.91;31250445;28;20220;-60
2024/01/26 23:59:18;;;;;;;7.00;4.55;;;;;;;22.04;43.95;102246.47;31258972;28;20287;-59
